createdAt,value
2022-12-18T00:00:48.197Z,11.30
2022-12-18T00:03:18.691Z,11.90
2022-12-18T00:05:29.564Z,12.90
2022-12-18T00:07:40.589Z,11.60
2022-12-18T00:09:50.597Z,12.80
2022-12-18T00:14:25.913Z,11.80
2022-12-18T00:16:36.850Z,12.50
2022-12-18T00:18:46.760Z,10.30
2022-12-18T00:20:56.837Z,11.20
2022-12-18T00:23:07.441Z,10.80
2022-12-18T00:25:17.748Z,10.60
2022-12-18T00:27:27.622Z,17.70
2022-12-18T00:29:37.752Z,15.00
2022-12-18T00:31:48.716Z,16.20
2022-12-18T00:34:00.104Z,15.50
2022-12-18T00:36:12.613Z,13.90
2022-12-18T00:38:22.140Z,12.00
2022-12-18T00:40:33.002Z,12.80
2022-12-18T00:43:00.875Z,12.00
2022-12-18T00:45:13.177Z,11.30
2022-12-18T00:47:23.166Z,10.90
2022-12-18T00:49:33.562Z,11.60
2022-12-18T00:51:43.347Z,11.50
2022-12-18T00:53:55.234Z,11.90
2022-12-18T00:56:05.220Z,10.30
2022-12-18T00:58:15.716Z,11.00
2022-12-18T01:00:26.408Z,12.00
2022-12-18T01:02:36.585Z,10.80
2022-12-18T01:04:46.676Z,10.70
2022-12-18T01:06:56.422Z,10.90
2022-12-18T01:09:06.024Z,10.30
2022-12-18T01:11:22.471Z,10.20
2022-12-18T01:13:32.722Z,10.60
2022-12-18T01:15:43.014Z,9.20
2022-12-18T01:17:56.704Z,10.40
2022-12-18T01:20:06.848Z,9.30
2022-12-18T01:22:17.521Z,10.20
2022-12-18T01:24:27.676Z,9.70
2022-12-18T01:26:37.256Z,10.50
2022-12-18T01:28:47.463Z,9.50
2022-12-18T01:30:57.030Z,9.00
2022-12-18T01:33:09.080Z,9.40
2022-12-18T01:35:19.066Z,9.40
2022-12-18T01:37:29.640Z,8.20
2022-12-18T01:39:39.528Z,10.50
2022-12-18T01:42:05.486Z,10.30
2022-12-18T01:44:45.026Z,10.40
2022-12-18T01:46:55.065Z,10.10
2022-12-18T01:49:05.720Z,10.40
2022-12-18T01:51:16.601Z,8.30
2022-12-18T01:53:27.761Z,10.20
2022-12-18T01:55:44.176Z,8.70
2022-12-18T01:57:55.276Z,10.30
2022-12-18T02:00:12.173Z,9.60
2022-12-18T02:02:25.474Z,11.60
2022-12-18T02:04:35.779Z,10.80
2022-12-18T02:06:46.586Z,10.60
2022-12-18T02:09:11.109Z,10.70
2022-12-18T02:11:29.051Z,8.00
2022-12-18T02:13:49.934Z,10.00
2022-12-18T02:16:09.001Z,10.40
2022-12-18T02:18:24.177Z,9.90
2022-12-18T02:20:39.182Z,10.40
2022-12-18T02:23:00.772Z,9.90
2022-12-18T02:25:24.260Z,10.60
2022-12-18T02:27:39.450Z,10.20
2022-12-18T02:29:58.331Z,10.20
2022-12-18T02:32:16.820Z,10.70
2022-12-18T02:34:30.007Z,10.00
2022-12-18T02:36:43.531Z,11.10
2022-12-18T02:38:54.801Z,8.80
2022-12-18T02:41:04.961Z,11.80
2022-12-18T02:43:17.389Z,11.50
2022-12-18T02:45:27.967Z,11.70
2022-12-18T02:47:40.205Z,12.60
2022-12-18T02:50:00.832Z,12.40
2022-12-18T02:52:21.461Z,12.00
2022-12-18T02:54:46.027Z,19.30
2022-12-18T02:56:58.795Z,14.30
2022-12-18T02:59:16.477Z,13.50
2022-12-18T03:01:36.437Z,13.20
2022-12-18T03:03:50.597Z,12.20
2022-12-18T03:06:03.119Z,11.10
2022-12-18T03:08:17.447Z,11.80
2022-12-18T03:10:31.693Z,11.80
2022-12-18T03:12:47.468Z,12.20
2022-12-18T03:15:02.751Z,12.50
2022-12-18T03:17:18.629Z,13.20
2022-12-18T03:19:32.305Z,11.80
2022-12-18T03:21:48.410Z,12.00
2022-12-18T03:24:00.058Z,11.40
2022-12-18T03:26:13.310Z,12.80
2022-12-18T03:28:25.580Z,13.80
2022-12-18T03:30:43.514Z,14.60
2022-12-18T03:33:00.199Z,12.90
2022-12-18T03:35:14.065Z,13.50
2022-12-18T03:37:24.133Z,12.70
2022-12-18T03:39:37.379Z,15.00
2022-12-18T03:41:52.636Z,13.00
2022-12-18T03:44:18.917Z,13.50
2022-12-18T03:46:35.426Z,14.00
2022-12-18T03:48:51.694Z,13.40
2022-12-18T03:51:08.412Z,12.30
2022-12-18T03:53:29.663Z,13.10
2022-12-18T03:55:40.647Z,11.80
2022-12-18T03:57:52.549Z,12.20
2022-12-18T04:00:07.080Z,11.70
2022-12-18T04:02:26.604Z,15.30
2022-12-18T04:04:40.977Z,14.30
2022-12-18T04:06:53.222Z,12.30
2022-12-18T04:11:13.050Z,10.50
2022-12-18T04:13:30.979Z,10.10
2022-12-18T04:15:43.638Z,9.20
2022-12-18T04:17:56.277Z,13.40
2022-12-18T04:20:07.415Z,21.00
2022-12-18T04:22:19.188Z,18.90
2022-12-18T04:24:31.200Z,14.10
2022-12-18T04:26:53.101Z,11.60
2022-12-18T04:29:09.324Z,11.70
2022-12-18T04:31:19.287Z,11.10
2022-12-18T04:33:30.412Z,9.90
2022-12-18T04:35:41.004Z,10.30
2022-12-18T04:37:50.834Z,10.80
2022-12-18T04:40:00.770Z,10.20
2022-12-18T04:42:16.961Z,10.40
2022-12-18T04:44:26.707Z,10.50
2022-12-18T04:46:36.517Z,15.60
2022-12-18T04:48:48.136Z,14.90
2022-12-18T04:50:58.100Z,10.50
2022-12-18T04:53:07.909Z,12.00
2022-12-18T04:55:18.161Z,8.80
2022-12-18T04:57:27.863Z,9.90
2022-12-18T04:59:37.483Z,10.30
2022-12-18T05:01:47.372Z,9.40
2022-12-18T05:03:57.672Z,9.50
2022-12-18T05:06:07.919Z,9.00
2022-12-18T05:08:17.875Z,9.00
2022-12-18T05:10:27.850Z,9.40
2022-12-18T05:13:01.423Z,10.40
2022-12-18T05:15:12.818Z,9.70
2022-12-18T05:17:22.634Z,9.10
2022-12-18T05:19:32.784Z,9.50
2022-12-18T05:21:42.356Z,9.20
2022-12-18T05:23:52.553Z,9.70
2022-12-18T05:26:05.470Z,9.90
2022-12-18T05:28:15.066Z,14.00
2022-12-18T05:30:25.016Z,10.50
2022-12-18T05:32:34.541Z,12.20
2022-12-18T05:34:44.419Z,11.20
2022-12-18T05:36:53.981Z,10.90
2022-12-18T05:39:03.540Z,9.70
2022-12-18T05:41:16.588Z,9.10
2022-12-18T05:43:28.251Z,9.80
2022-12-18T05:45:39.374Z,10.50
2022-12-18T05:47:49.054Z,10.50
2022-12-18T05:49:58.597Z,10.20
2022-12-18T05:52:08.589Z,10.40
2022-12-18T05:54:18.388Z,9.90
2022-12-18T05:56:28.128Z,9.50
2022-12-18T05:58:38.086Z,9.50
2022-12-18T06:00:48.872Z,9.90
2022-12-18T06:02:58.560Z,10.80
2022-12-18T06:05:10.413Z,11.00
2022-12-18T06:07:20.435Z,10.50
2022-12-18T06:09:30.201Z,10.20
2022-12-18T06:11:40.251Z,10.40
2022-12-18T06:13:56.316Z,10.70
2022-12-18T06:16:10.035Z,10.10
2022-12-18T06:18:19.885Z,9.80
2022-12-18T06:20:35.057Z,10.50
2022-12-18T06:22:44.996Z,9.90
2022-12-18T06:24:54.849Z,9.80
2022-12-18T06:27:05.006Z,9.90
2022-12-18T06:29:14.882Z,9.50
2022-12-18T06:31:24.649Z,9.50
2022-12-18T06:33:34.892Z,8.90
2022-12-18T06:35:44.896Z,8.40
2022-12-18T06:37:55.191Z,9.60
2022-12-18T06:40:04.824Z,9.40
2022-12-18T06:42:14.644Z,9.60
2022-12-18T06:44:25.001Z,11.90
2022-12-18T06:46:35.688Z,10.60
2022-12-18T06:48:45.315Z,9.60
2022-12-18T06:50:54.914Z,10.00
2022-12-18T06:53:04.608Z,11.70
2022-12-18T06:55:15.139Z,10.70
2022-12-18T06:57:24.774Z,11.10
2022-12-18T06:59:35.299Z,11.20
2022-12-18T07:01:45.263Z,14.90
2022-12-18T07:03:59.339Z,11.20
2022-12-18T07:06:15.974Z,10.30
2022-12-18T07:08:26.076Z,10.50
2022-12-18T07:10:35.856Z,9.50
2022-12-18T07:12:45.804Z,9.20
2022-12-18T07:14:56.804Z,8.70
2022-12-18T07:17:06.678Z,10.70
2022-12-18T07:19:16.629Z,10.30
2022-12-18T07:21:27.850Z,9.40
2022-12-18T07:23:39.859Z,9.60
2022-12-18T07:25:50.257Z,9.50
2022-12-18T07:28:01.226Z,10.80
2022-12-18T07:30:13.924Z,10.90
2022-12-18T07:32:23.891Z,11.10
2022-12-18T07:34:33.849Z,10.10
2022-12-18T07:36:43.912Z,10.20
2022-12-18T07:38:54.588Z,9.20
2022-12-18T07:41:08.816Z,9.90
2022-12-18T07:43:18.858Z,10.60
2022-12-18T07:45:29.287Z,9.60
2022-12-18T07:47:42.578Z,10.20
2022-12-18T07:49:52.509Z,10.50
2022-12-18T07:52:03.128Z,9.50
2022-12-18T07:54:13.047Z,9.70
2022-12-18T07:56:28.070Z,11.30
2022-12-18T07:58:38.923Z,10.20
2022-12-18T08:00:48.541Z,10.20
2022-12-18T08:02:58.541Z,9.50
2022-12-18T08:05:09.160Z,9.60
2022-12-18T08:07:19.299Z,10.30
2022-12-18T08:09:29.581Z,9.80
2022-12-18T08:11:39.422Z,9.30
2022-12-18T08:13:49.467Z,10.20
2022-12-18T08:16:04.496Z,9.90
2022-12-18T08:18:14.557Z,9.50
2022-12-18T08:20:24.693Z,10.50
2022-12-18T08:22:44.410Z,10.50
2022-12-18T08:24:54.266Z,10.90
2022-12-18T08:27:28.248Z,10.90
2022-12-18T08:29:35.138Z,8.80
2022-12-18T08:31:45.256Z,9.20
2022-12-18T08:33:55.991Z,8.90
2022-12-18T08:36:08.472Z,10.30
2022-12-18T08:38:18.206Z,10.20
2022-12-18T08:40:28.048Z,9.00
2022-12-18T08:42:56.367Z,9.50
2022-12-18T08:45:06.274Z,9.30
2022-12-18T08:47:16.516Z,10.20
2022-12-18T08:49:26.283Z,11.20
2022-12-18T08:51:36.543Z,9.90
2022-12-18T08:53:47.184Z,9.90
2022-12-18T08:55:56.948Z,10.30
2022-12-18T08:58:06.672Z,10.10
2022-12-18T09:00:18.678Z,9.70
2022-12-18T09:02:28.658Z,9.70
2022-12-18T09:04:38.342Z,9.60
2022-12-18T09:06:48.615Z,10.70
2022-12-18T09:09:00.059Z,9.20
2022-12-18T09:11:17.799Z,9.70
2022-12-18T09:13:27.819Z,10.20
2022-12-18T09:15:42.903Z,9.90
2022-12-18T09:17:54.276Z,9.60
2022-12-18T09:20:03.950Z,9.70
2022-12-18T09:22:13.385Z,9.90
2022-12-18T09:24:22.935Z,8.70
2022-12-18T09:26:32.574Z,9.70
2022-12-18T09:28:42.635Z,9.10
2022-12-18T09:30:53.525Z,9.20
2022-12-18T09:33:03.553Z,9.30
2022-12-18T09:35:14.019Z,10.10
2022-12-18T09:37:23.719Z,9.20
2022-12-18T09:39:33.578Z,9.00
2022-12-18T09:41:48.644Z,8.90
2022-12-18T09:44:03.383Z,8.60
2022-12-18T09:46:14.936Z,9.00
2022-12-18T09:48:29.268Z,9.50
2022-12-18T09:50:42.774Z,9.00
2022-12-18T09:52:56.095Z,8.90
2022-12-18T09:55:09.029Z,9.00
2022-12-18T09:57:22.436Z,9.00
2022-12-18T09:59:38.316Z,8.50
2022-12-18T10:01:48.192Z,8.80
2022-12-18T10:03:59.210Z,8.90
2022-12-18T10:06:16.442Z,8.90
2022-12-18T10:08:33.067Z,9.10
2022-12-18T10:10:49.075Z,8.80
2022-12-18T10:13:05.976Z,8.90
2022-12-18T10:15:26.930Z,8.70
2022-12-18T10:17:44.912Z,8.70
2022-12-18T10:19:59.389Z,8.60
2022-12-18T10:22:21.895Z,9.40
2022-12-18T10:24:42.564Z,8.20
2022-12-18T10:26:52.714Z,8.80
2022-12-18T10:29:05.713Z,9.00
2022-12-18T10:31:22.081Z,7.80
2022-12-18T10:33:35.843Z,8.10
2022-12-18T10:35:46.547Z,8.00
2022-12-18T10:38:26.610Z,8.60
2022-12-18T10:40:50.607Z,8.50
2022-12-18T10:43:14.477Z,8.60
2022-12-18T10:45:23.975Z,8.80
2022-12-18T10:47:33.544Z,8.20
2022-12-18T10:49:50.664Z,8.80
2022-12-18T10:52:17.896Z,9.40
2022-12-18T10:54:30.741Z,8.70
2022-12-18T10:56:40.882Z,7.60
2022-12-18T10:59:00.783Z,8.60
2022-12-18T11:01:14.184Z,8.60
2022-12-18T11:03:38.101Z,9.00
2022-12-18T11:05:48.349Z,8.00
2022-12-18T11:07:58.419Z,7.40
2022-12-18T11:10:18.841Z,7.70
2022-12-18T11:12:30.954Z,7.80
2022-12-18T11:17:28.198Z,8.40
2022-12-18T11:19:37.008Z,8.90
2022-12-18T11:21:47.153Z,9.30
2022-12-18T11:23:58.051Z,8.10
2022-12-18T11:26:08.721Z,8.70
2022-12-18T11:28:37.499Z,8.60
2022-12-18T11:30:47.978Z,9.10
2022-12-18T11:33:02.603Z,8.30
2022-12-18T11:35:24.842Z,9.30
2022-12-18T11:37:35.535Z,9.00
2022-12-18T11:39:50.084Z,8.60
2022-12-18T11:42:14.206Z,9.30
2022-12-18T11:44:29.319Z,8.90
2022-12-18T11:46:46.530Z,8.70
2022-12-18T11:49:01.598Z,8.40
2022-12-18T11:51:17.581Z,8.90
2022-12-18T11:53:29.179Z,8.80
2022-12-18T11:55:46.981Z,9.00
2022-12-18T11:58:07.100Z,8.50
2022-12-18T12:00:20.945Z,8.70
2022-12-18T12:06:24.752Z,9.20
2022-12-18T12:08:43.530Z,9.70
2022-12-18T12:11:04.538Z,9.20
2022-12-18T12:13:27.667Z,8.90
2022-12-18T12:15:48.074Z,8.40
2022-12-18T12:18:09.593Z,9.30
2022-12-18T12:20:30.539Z,9.30
2022-12-18T12:22:52.787Z,8.40
2022-12-18T12:25:29.755Z,8.40
2022-12-18T12:27:49.792Z,8.70
2022-12-18T12:30:10.303Z,9.00
2022-12-18T12:32:33.558Z,9.20
2022-12-18T12:34:59.591Z,9.30
2022-12-18T12:37:25.214Z,9.40
2022-12-18T12:39:38.706Z,9.10
2022-12-18T12:42:07.772Z,8.60
2022-12-18T12:44:24.858Z,9.10
2022-12-18T12:46:40.676Z,9.00
2022-12-18T12:48:53.133Z,8.90
2022-12-18T12:53:20.316Z,9.50
2022-12-18T12:55:31.400Z,9.00
2022-12-18T13:00:00.958Z,9.40
2022-12-18T13:02:19.109Z,8.80
2022-12-18T13:04:37.856Z,9.80
2022-12-18T13:06:54.988Z,10.20
2022-12-18T13:09:06.501Z,8.50
2022-12-18T13:11:49.126Z,9.40
2022-12-18T13:14:01.492Z,9.20
2022-12-18T13:16:12.849Z,9.90
2022-12-18T13:18:27.128Z,9.30
2022-12-18T13:20:41.065Z,9.60
2022-12-18T13:22:52.756Z,9.30
2022-12-18T13:25:02.858Z,8.10
2022-12-18T13:27:58.594Z,9.00
2022-12-18T13:30:55.552Z,8.90
2022-12-18T13:36:36.308Z,8.30
2022-12-18T13:38:47.024Z,8.10
2022-12-18T13:41:01.352Z,8.50
2022-12-18T13:43:39.451Z,7.10
2022-12-18T13:46:20.421Z,7.20
2022-12-18T13:48:32.586Z,7.20
2022-12-18T13:50:43.929Z,7.40
2022-12-18T13:52:55.706Z,7.70
2022-12-18T13:55:08.389Z,8.00
2022-12-18T13:57:32.199Z,7.70
2022-12-18T13:59:42.852Z,7.70
2022-12-18T14:01:57.594Z,7.60
2022-12-18T14:04:22.310Z,6.50
2022-12-18T14:06:33.092Z,6.40
2022-12-18T14:08:46.095Z,7.50
2022-12-18T14:10:56.304Z,6.90
2022-12-18T14:13:11.599Z,6.50
2022-12-18T14:15:30.393Z,6.80
2022-12-18T14:17:42.048Z,6.00
2022-12-18T14:19:53.631Z,6.70
2022-12-18T14:22:03.329Z,5.80
2022-12-18T14:24:19.911Z,5.90
2022-12-18T14:26:31.781Z,6.00
2022-12-18T14:28:48.397Z,5.10
2022-12-18T14:30:58.901Z,5.40
2022-12-18T14:33:13.192Z,5.60
2022-12-18T14:35:24.389Z,5.10
2022-12-18T14:37:34.026Z,5.50
2022-12-18T14:39:54.604Z,4.60
2022-12-18T14:42:04.555Z,4.80
2022-12-18T14:44:17.260Z,5.50
2022-12-18T14:46:40.237Z,4.70
2022-12-18T14:48:52.604Z,4.00
2022-12-18T14:51:04.620Z,4.40
2022-12-18T14:55:32.561Z,3.90
2022-12-18T14:57:44.762Z,4.10
2022-12-18T14:59:55.571Z,3.70
2022-12-18T15:02:13.186Z,5.00
2022-12-18T15:04:33.814Z,3.50
2022-12-18T15:06:44.263Z,4.00
2022-12-18T15:08:54.575Z,3.90
2022-12-18T15:11:07.741Z,3.50
2022-12-18T15:13:27.509Z,3.30
2022-12-18T15:15:53.951Z,3.40
2022-12-18T15:18:05.420Z,4.10
2022-12-18T15:20:16.123Z,4.10
2022-12-18T15:22:29.057Z,3.80
2022-12-18T15:24:39.156Z,4.30
2022-12-18T15:26:49.228Z,3.50
2022-12-18T15:28:59.947Z,3.60
2022-12-18T15:31:28.207Z,4.00
2022-12-18T15:33:39.582Z,3.80
2022-12-18T15:37:58.091Z,3.50
2022-12-18T15:40:09.045Z,3.60
2022-12-18T15:42:36.112Z,3.40
2022-12-18T15:44:49.960Z,3.50
2022-12-18T15:46:59.943Z,3.90
2022-12-18T15:49:10.791Z,3.50
2022-12-18T15:51:23.141Z,4.40
2022-12-18T15:53:35.654Z,3.70
2022-12-18T15:56:02.326Z,3.90
2022-12-18T15:58:14.435Z,3.20
2022-12-18T16:00:25.678Z,3.70
2022-12-18T16:02:35.455Z,4.10
2022-12-18T16:04:47.110Z,4.10
2022-12-18T16:07:14.434Z,3.60
2022-12-18T16:09:26.339Z,3.10
2022-12-18T16:11:42.060Z,4.20
2022-12-18T16:13:52.059Z,3.40
2022-12-18T16:16:01.799Z,2.90
2022-12-18T16:18:11.662Z,2.80
2022-12-18T16:20:23.327Z,3.40
2022-12-18T16:22:33.698Z,3.30
2022-12-18T16:24:44.150Z,3.50
2022-12-18T16:26:54.816Z,3.20
2022-12-18T16:29:04.490Z,3.40
2022-12-18T16:31:14.970Z,3.50
2022-12-18T16:33:24.952Z,3.40
2022-12-18T16:35:35.136Z,4.80
2022-12-18T16:37:45.913Z,3.10
2022-12-18T16:39:55.917Z,3.90
2022-12-18T16:42:06.377Z,3.50
2022-12-18T16:44:16.554Z,3.20
2022-12-18T16:46:26.103Z,3.30
2022-12-18T16:48:38.575Z,3.40
2022-12-18T16:50:48.486Z,3.50
2022-12-18T16:52:58.404Z,3.20
2022-12-18T16:55:09.474Z,2.80
2022-12-18T16:57:21.523Z,3.80
2022-12-18T16:59:33.605Z,3.00
2022-12-18T17:01:44.767Z,3.00
2022-12-18T17:03:59.323Z,3.50
2022-12-18T17:06:10.612Z,3.30
2022-12-18T17:08:21.349Z,3.30
2022-12-18T17:10:31.286Z,2.90
2022-12-18T17:12:41.362Z,3.50
2022-12-18T17:14:51.300Z,3.50
2022-12-18T17:17:24.264Z,3.70
2022-12-18T17:19:32.049Z,3.50
2022-12-18T17:21:42.248Z,3.70
2022-12-18T17:23:52.337Z,3.60
2022-12-18T17:26:02.418Z,3.10
2022-12-18T17:28:12.438Z,3.50
2022-12-18T17:30:23.956Z,3.60
2022-12-18T17:32:33.890Z,3.60
2022-12-18T17:34:43.973Z,3.20
2022-12-18T17:36:54.133Z,2.90
2022-12-18T17:39:05.802Z,3.90
2022-12-18T17:41:15.829Z,2.50
2022-12-18T17:43:26.285Z,3.20
2022-12-18T17:45:36.789Z,2.90
2022-12-18T17:47:46.638Z,3.40
2022-12-18T17:49:56.433Z,3.50
2022-12-18T17:52:07.105Z,3.10
2022-12-18T17:54:17.251Z,2.90
2022-12-18T17:56:27.802Z,3.30
2022-12-18T17:58:38.930Z,3.50
2022-12-18T18:00:49.265Z,3.20
2022-12-18T18:02:59.342Z,3.20
2022-12-18T18:05:12.287Z,3.00
2022-12-18T18:07:23.830Z,3.40
2022-12-18T18:09:34.068Z,2.80
2022-12-18T18:12:00.979Z,3.10
2022-12-18T18:14:13.683Z,2.80
2022-12-18T18:16:23.247Z,2.80
2022-12-18T18:18:33.696Z,2.60
2022-12-18T18:20:45.050Z,2.40
2022-12-18T18:22:54.769Z,3.20
2022-12-18T18:25:05.121Z,2.60
2022-12-18T18:27:15.416Z,4.40
2022-12-18T18:29:27.881Z,3.20
2022-12-18T18:31:41.212Z,3.30
2022-12-18T18:33:51.651Z,3.50
2022-12-18T18:36:01.780Z,2.90
2022-12-18T18:38:11.502Z,3.30
2022-12-18T18:40:21.769Z,3.20
2022-12-18T18:42:32.009Z,3.20
2022-12-18T18:44:47.191Z,3.00
2022-12-18T18:46:59.723Z,4.00
2022-12-18T18:49:11.548Z,2.80
2022-12-18T18:51:22.342Z,3.00
2022-12-18T18:53:32.177Z,3.60
2022-12-18T18:55:41.744Z,2.80
2022-12-18T18:57:51.486Z,2.80
2022-12-18T19:00:01.496Z,3.00
2022-12-18T19:02:13.729Z,2.70
2022-12-18T19:04:23.572Z,3.30
2022-12-18T19:06:33.435Z,2.90
2022-12-18T19:08:44.284Z,5.30
2022-12-18T19:10:57.961Z,3.80
2022-12-18T19:13:23.302Z,6.10
2022-12-18T19:15:32.869Z,1.80
2022-12-18T19:17:42.632Z,1.50
2022-12-18T19:19:56.987Z,5.40
2022-12-18T19:22:06.875Z,5.40
2022-12-18T19:24:16.843Z,3.70
2022-12-18T19:26:28.483Z,4.90
2022-12-18T19:28:39.070Z,4.00
2022-12-18T19:30:49.028Z,1.30
2022-12-18T19:33:14.724Z,1.30
2022-12-18T19:35:33.223Z,1.20
2022-12-18T19:37:43.333Z,1.60
2022-12-18T19:39:53.113Z,8.40
2022-12-18T19:42:04.734Z,4.80
2022-12-18T19:44:15.684Z,4.50
2022-12-18T19:46:26.608Z,3.20
2022-12-18T19:48:37.126Z,1.80
2022-12-18T19:50:47.459Z,1.30
2022-12-18T19:52:57.607Z,1.50
2022-12-18T19:55:08.203Z,6.90
2022-12-18T19:57:18.360Z,4.80
2022-12-18T19:59:28.254Z,2.50
2022-12-18T20:01:38.104Z,3.00
2022-12-18T20:03:51.848Z,1.40
2022-12-18T20:06:12.648Z,1.70
2022-12-18T20:08:23.087Z,8.00
2022-12-18T20:10:33.693Z,4.40
2022-12-18T20:12:43.681Z,2.70
2022-12-18T20:14:53.658Z,4.50
2022-12-18T20:17:03.444Z,1.70
2022-12-18T20:19:14.966Z,1.80
2022-12-18T20:21:26.092Z,1.30
2022-12-18T20:23:35.905Z,1.70
2022-12-18T20:25:47.245Z,6.50
2022-12-18T20:27:58.571Z,4.50
2022-12-18T20:30:09.927Z,1.20
2022-12-18T20:32:19.916Z,1.10
2022-12-18T20:34:30.014Z,1.30
2022-12-18T20:36:41.058Z,7.20
2022-12-18T20:38:51.495Z,4.80
2022-12-18T20:41:08.680Z,4.50
2022-12-18T20:43:19.066Z,2.30
2022-12-18T20:45:29.882Z,1.20
2022-12-18T20:47:39.640Z,1.40
2022-12-18T20:49:49.702Z,1.30
2022-12-18T20:52:00.069Z,5.30
2022-12-18T20:54:11.954Z,2.50
2022-12-18T20:58:31.728Z,1.60
2022-12-18T21:00:41.486Z,1.70
2022-12-18T21:02:51.454Z,1.70
2022-12-18T21:05:01.870Z,1.90
2022-12-18T21:07:11.619Z,1.60
2022-12-18T21:09:21.417Z,7.20
2022-12-18T21:11:50.555Z,4.30
2022-12-18T21:14:00.615Z,3.60
2022-12-18T21:16:11.069Z,1.40
2022-12-18T21:18:20.911Z,1.50
2022-12-18T21:20:30.639Z,1.40
2022-12-18T21:22:40.901Z,5.30
2022-12-18T21:24:50.697Z,3.90
2022-12-18T21:27:00.687Z,2.00
2022-12-18T21:29:13.484Z,1.00
2022-12-18T21:31:24.094Z,1.20
2022-12-18T21:33:33.926Z,1.30
2022-12-18T21:35:44.081Z,10.30
2022-12-18T21:37:53.973Z,2.80
2022-12-18T21:40:04.164Z,2.80
2022-12-18T21:42:32.125Z,1.00
2022-12-18T21:44:42.899Z,1.00
2022-12-18T21:46:59.814Z,1.20
2022-12-18T21:49:15.308Z,1.30
2022-12-18T21:51:25.250Z,7.50
2022-12-18T21:53:35.098Z,4.30
2022-12-18T21:55:45.126Z,0.70
2022-12-18T21:57:55.489Z,1.60
2022-12-18T22:00:05.843Z,1.20
2022-12-18T22:02:23.376Z,1.40
2022-12-18T22:04:33.401Z,4.90
2022-12-18T22:06:44.205Z,4.20
2022-12-18T22:08:54.411Z,2.80
2022-12-18T22:11:04.221Z,1.40
2022-12-18T22:13:14.328Z,1.20
2022-12-18T22:15:24.799Z,1.30
2022-12-18T22:17:34.937Z,7.10
2022-12-18T22:19:44.590Z,2.80
2022-12-18T22:21:55.556Z,2.60
2022-12-18T22:24:07.376Z,2.90
2022-12-18T22:26:17.500Z,1.30
2022-12-18T22:28:44.426Z,1.10
2022-12-18T22:30:56.357Z,5.70
2022-12-18T22:33:09.664Z,6.20
2022-12-18T22:35:19.545Z,3.80
2022-12-18T22:37:29.119Z,3.40
2022-12-18T22:39:40.412Z,1.20
2022-12-18T22:41:50.663Z,1.70
2022-12-18T22:44:00.398Z,1.60
2022-12-18T22:46:14.804Z,1.30
2022-12-18T22:48:24.311Z,1.60
2022-12-18T22:50:34.129Z,6.30
2022-12-18T22:52:44.320Z,3.90
2022-12-18T22:54:54.210Z,3.30
2022-12-18T22:57:04.214Z,1.80
2022-12-18T22:59:19.947Z,1.50
2022-12-18T23:01:31.167Z,1.10
2022-12-18T23:03:42.591Z,1.40
2022-12-18T23:05:52.558Z,4.20
2022-12-18T23:10:13.376Z,3.10
2022-12-18T23:12:23.211Z,1.00
2022-12-18T23:14:33.607Z,1.40
2022-12-18T23:16:43.843Z,1.50
2022-12-18T23:18:59.369Z,6.40
2022-12-18T23:21:10.408Z,4.20
2022-12-18T23:23:22.808Z,2.70
2022-12-18T23:25:32.459Z,2.90
2022-12-18T23:27:42.260Z,0.90
2022-12-18T23:29:51.939Z,1.40
2022-12-18T23:32:02.594Z,1.30
2022-12-18T23:34:14.239Z,4.40
2022-12-18T23:36:24.609Z,3.30
2022-12-18T23:38:35.688Z,2.30
2022-12-18T23:40:46.697Z,1.20
2022-12-18T23:42:58.164Z,1.10
2022-12-18T23:45:17.383Z,1.60
2022-12-18T23:47:28.614Z,7.50
2022-12-18T23:49:38.554Z,3.30
2022-12-18T23:51:48.607Z,3.10
2022-12-18T23:54:00.638Z,1.00
2022-12-18T23:58:22.879Z,0.80
